Time;durP1;ratioP1;P1;durP2;ratioP2;P2;SDS_P1;SDS_P2;PMS_P1;PMS_P2;Temp;Humidity;BMP_temperature;BMP_pressure;BME280_temperature;BME280_humidity;BME280_pressure;Samples;Min_cycle;Max_cycle;Signal;HPM_P1;HPM_P2
2022/12/18 00:00:41;;;;;;;45.85;18.42;;;-3.10;99.90;;;;;;5024740;28;20053;-68
2022/12/18 00:03:06;;;;;;;50.17;23.17;;;-3.90;99.90;;;;;;5061726;28;20052;-69
2022/12/18 00:05:32;;;;;;;45.20;20.55;;;-3.90;99.90;;;;;;5039217;28;20417;-69
2022/12/18 00:07:58;;;;;;;45.70;20.52;;;-4.00;99.90;;;;;;5028761;28;20059;-69
2022/12/18 00:10:23;;;;;;;51.90;22.85;;;-4.00;99.90;;;;;;5048555;28;20053;-69
2022/12/18 00:12:49;;;;;;;41.30;19.65;;;-4.10;99.90;;;;;;5036106;28;20053;-69
2022/12/18 00:15:15;;;;;;;44.30;18.42;;;-4.10;99.90;;;;;;5034305;28;20116;-69
2022/12/18 00:17:40;;;;;;;46.78;20.45;;;-4.10;99.90;;;;;;5050067;28;20037;-69
2022/12/18 00:20:07;;;;;;;41.78;18.48;;;-4.20;99.90;;;;;;5050562;28;20067;-68
2022/12/18 00:22:32;;;;;;;45.75;19.85;;;-4.10;99.90;;;;;;5046908;28;20041;-69
2022/12/18 00:24:58;;;;;;;43.95;19.15;;;-4.10;99.90;;;;;;5034274;28;20084;-69
2022/12/18 00:27:24;;;;;;;42.60;19.02;;;-4.20;99.90;;;;;;5036597;28;20124;-69
2022/12/18 00:29:50;;;;;;;44.35;19.95;;;-4.20;99.90;;;;;;5050294;28;20087;-68
2022/12/18 00:32:15;;;;;;;46.50;19.65;;;-4.30;99.90;;;;;;5034307;28;20626;-68
2022/12/18 00:34:41;;;;;;;44.92;19.67;;;-4.30;99.90;;;;;;5035902;28;20535;-68
2022/12/18 00:37:07;;;;;;;45.28;21.17;;;-4.30;99.90;;;;;;5035057;28;20045;-69
2022/12/18 00:39:33;;;;;;;48.28;21.70;;;-4.30;99.90;;;;;;5047769;28;20064;-69
2022/12/18 00:44:42;;;;;;;47.97;21.15;;;-4.30;99.90;;;;;;5050062;28;20056;-69
2022/12/18 00:47:08;;;;;;;47.05;21.38;;;-4.30;99.90;;;;;;5049211;28;20105;-69
2022/12/18 00:49:34;;;;;;;51.38;20.10;;;-4.40;99.90;;;;;;5037508;28;20076;-69
2022/12/18 00:51:59;;;;;;;45.17;20.98;;;-4.50;99.90;;;;;;5066448;28;20050;-69
2022/12/18 00:54:25;;;;;;;44.85;21.00;;;-4.50;99.90;;;;;;5044901;28;20049;-68
2022/12/18 00:56:51;;;;;;;48.92;20.38;;;-4.50;99.90;;;;;;5043855;28;20037;-68
2022/12/18 00:59:17;;;;;;;38.78;19.23;;;-4.50;99.90;;;;;;5038263;28;20080;-68
2022/12/18 01:01:43;;;;;;;45.83;18.98;;;-4.00;99.90;;;;;;5024440;28;20042;-68
2022/12/18 01:04:09;;;;;;;51.55;20.48;;;-4.60;99.90;;;;;;5041609;28;20129;-68
2022/12/18 01:06:35;;;;;;;45.28;19.80;;;-4.60;99.90;;;;;;5051872;28;20244;-68
2022/12/18 01:09:00;;;;;;;45.75;19.50;;;-4.50;99.90;;;;;;5040622;28;20124;-68
2022/12/18 01:11:26;;;;;;;41.47;18.55;;;-4.60;99.90;;;;;;5040934;28;20076;-68
2022/12/18 01:13:53;;;;;;;39.83;18.25;;;-4.50;99.90;;;;;;5053034;28;20327;-68
2022/12/18 01:16:19;;;;;;;34.58;17.48;;;-4.60;99.90;;;;;;5044918;28;20057;-68
2022/12/18 01:18:45;;;;;;;36.38;17.33;;;-4.50;99.90;;;;;;5054530;28;20125;-68
2022/12/18 01:21:14;;;;;;;37.97;19.00;;;-4.50;99.90;;;;;;5053577;28;20110;-68
2022/12/18 01:23:39;;;;;;;38.28;17.95;;;-4.60;99.90;;;;;;5050522;28;20057;-68
2022/12/18 01:26:11;;;;;;;39.03;18.02;;;-4.60;99.90;;;;;;5042632;28;20040;-68
2022/12/18 01:28:37;;;;;;;41.00;17.95;;;-4.60;99.90;;;;;;5048106;28;20057;-68
2022/12/18 01:31:31;;;;;;;36.25;18.23;;;-4.60;99.90;;;;;;5043378;28;20130;-69
2022/12/18 01:33:57;;;;;;;39.88;18.00;;;-4.60;99.90;;;;;;5047926;28;20133;-68
2022/12/18 01:36:25;;;;;;;41.60;18.75;;;-4.60;99.90;;;;;;5042232;28;20125;-68
2022/12/18 01:38:52;;;;;;;43.90;19.05;;;-4.60;99.90;;;;;;5040976;28;20069;-68
2022/12/18 01:41:22;;;;;;;45.00;18.77;;;-4.60;99.90;;;;;;5049713;28;20144;-68
2022/12/18 01:43:50;;;;;;;41.05;19.92;;;-4.60;99.90;;;;;;5041075;28;20120;-69
2022/12/18 01:46:17;;;;;;;46.70;19.67;;;-4.70;99.90;;;;;;5042666;28;20101;-68
2022/12/18 01:48:44;;;;;;;49.55;21.42;;;-4.70;99.90;;;;;;5050042;28;20077;-69
2022/12/18 01:51:12;;;;;;;45.55;19.05;;;-4.70;99.90;;;;;;5041040;28;20064;-68
2022/12/18 01:53:40;;;;;;;50.95;19.95;;;-4.80;99.90;;;;;;5055443;28;20084;-68
2022/12/18 01:56:06;;;;;;;47.17;19.77;;;-4.80;99.90;;;;;;5070078;28;20045;-68
2022/12/18 01:58:41;;;;;;;48.20;19.52;;;-4.90;99.90;;;;;;5061981;28;20116;-68
2022/12/18 02:01:07;;;;;;;45.83;19.83;;;-4.90;99.90;;;;;;5068310;28;20084;-68
2022/12/18 02:03:32;;;;;;;44.45;19.00;;;-4.90;99.90;;;;;;5058286;28;20094;-68
2022/12/18 02:06:14;;;;;;;43.55;18.38;;;-4.90;99.90;;;;;;5042125;28;20055;-69
2022/12/18 02:08:48;;;;;;;45.50;20.73;;;-4.90;99.90;;;;;;5051515;28;20057;-69
2022/12/18 02:11:26;;;;;;;44.83;19.48;;;-5.00;99.90;;;;;;5055209;28;20049;-69
2022/12/18 02:14:14;;;;;;;44.15;19.77;;;-5.00;99.90;;;;;;5042219;28;20076;-69
2022/12/18 02:17:07;;;;;;;39.03;18.05;;;-5.10;99.90;;;;;;5056316;28;20041;-67
2022/12/18 02:19:56;;;;;;;40.05;18.08;;;-5.10;99.90;;;;;;5057245;28;20584;-67
2022/12/18 02:22:47;;;;;;;34.28;17.17;;;-4.90;99.90;;;;;;5027662;28;20034;-67
2022/12/18 02:25:31;;;;;;;34.85;15.25;;;-5.20;99.90;;;;;;5044178;28;20045;-67
2022/12/18 02:28:01;;;;;;;29.83;15.35;;;-5.20;99.90;;;;;;5018458;28;20056;-67
2022/12/18 02:30:31;;;;;;;27.85;15.23;;;-5.30;99.90;;;;;;5043538;28;20077;-67
2022/12/18 02:32:59;;;;;;;32.20;17.13;;;-5.30;99.90;;;;;;5046483;28;20406;-67
2022/12/18 02:35:28;;;;;;;32.25;14.40;;;-5.30;99.90;;;;;;5047877;28;20045;-67
2022/12/18 02:37:55;;;;;;;31.40;15.02;;;-5.40;99.90;;;;;;5049660;28;20095;-67
2022/12/18 02:40:23;;;;;;;33.58;14.75;;;-4.10;99.90;;;;;;5040145;28;20586;-67
2022/12/18 02:42:49;;;;;;;29.08;15.05;;;-5.40;99.90;;;;;;5053425;28;20432;-67
2022/12/18 02:45:15;;;;;;;27.10;15.05;;;-5.50;99.90;;;;;;5053675;28;20037;-66
2022/12/18 02:47:43;;;;;;;29.30;14.18;;;-5.50;99.90;;;;;;5044469;28;20068;-67
2022/12/18 02:50:22;;;;;;;24.48;13.13;;;-5.60;99.90;;;;;;5046570;28;20058;-67
2022/12/18 02:53:15;;;;;;;32.53;14.18;;;-5.50;99.90;;;;;;5051072;28;20045;-67
2022/12/18 02:56:02;;;;;;;25.98;14.27;;;-4.50;99.90;;;;;;5045307;28;20045;-67
2022/12/18 02:58:47;;;;;;;25.48;13.40;;;-5.60;99.90;;;;;;5020550;28;20072;-67
2022/12/18 03:01:28;;;;;;;29.95;14.20;;;-5.60;99.90;;;;;;5049657;28;20041;-66
2022/12/18 03:03:59;;;;;;;27.10;12.45;;;-5.60;99.90;;;;;;5058574;28;20048;-66
2022/12/18 03:06:48;;;;;;;25.13;12.77;;;-4.80;99.90;;;;;;5037926;28;20325;-67
2022/12/18 03:09:19;;;;;;;27.23;12.48;;;-5.60;99.90;;;;;;5033557;28;20713;-67
2022/12/18 03:14:40;;;;;;;26.38;12.45;;;-5.60;99.90;;;;;;5030190;28;20053;-67
2022/12/18 03:17:10;;;;;;;30.80;14.25;;;-5.60;99.90;;;;;;5040309;28;20045;-67
2022/12/18 03:19:35;;;;;;;25.77;12.95;;;-5.60;99.90;;;;;;5054100;28;20107;-67
2022/12/18 03:22:04;;;;;;;23.75;12.75;;;-5.40;99.90;;;;;;5039077;28;20041;-66
2022/12/18 03:24:33;;;;;;;31.95;13.15;;;-5.70;99.90;;;;;;5059756;28;20107;-67
2022/12/18 03:27:02;;;;;;;23.10;12.38;;;-5.60;99.90;;;;;;5036563;28;20050;-67
2022/12/18 03:29:33;;;;;;;26.30;13.02;;;-5.60;99.90;;;;;;5039578;28;20061;-67
2022/12/18 03:32:05;;;;;;;24.40;12.70;;;-5.60;99.90;;;;;;5036600;28;20044;-67
2022/12/18 03:34:36;;;;;;;24.60;12.52;;;-5.60;99.90;;;;;;5038952;28;20042;-67
2022/12/18 03:37:02;;;;;;;22.02;11.88;;;-5.60;99.90;;;;;;5036195;28;20052;-67
2022/12/18 03:39:27;;;;;;;27.45;13.07;;;-5.60;99.90;;;;;;5040911;28;20089;-67
2022/12/18 03:42:06;;;;;;;27.67;13.73;;;-5.60;99.90;;;;;;5036472;28;20173;-67
2022/12/18 03:44:48;;;;;;;24.25;12.40;;;-5.60;99.90;;;;;;5026357;28;20053;-67
2022/12/18 03:47:23;;;;;;;25.90;13.18;;;-5.60;99.90;;;;;;5043204;28;20036;-66
2022/12/18 03:49:55;;;;;;;26.08;12.38;;;-5.60;99.90;;;;;;5040262;28;20053;-67
2022/12/18 03:52:30;;;;;;;22.77;12.02;;;-5.70;99.90;;;;;;5036991;28;20493;-67
2022/12/18 03:54:59;;;;;;;26.30;13.43;;;-5.70;99.90;;;;;;5036713;28;20057;-67
2022/12/18 03:57:30;;;;;;;27.67;12.13;;;-5.70;99.90;;;;;;5040853;28;20049;-67
2022/12/18 04:00:02;;;;;;;22.58;12.10;;;-5.70;99.90;;;;;;5038379;28;20041;-67
2022/12/18 04:02:30;;;;;;;24.48;12.15;;;-5.70;99.90;;;;;;5035477;28;20051;-67
2022/12/18 04:04:59;;;;;;;27.73;13.45;;;-5.40;99.90;;;;;;5051756;28;20507;-67
2022/12/18 04:07:25;;;;;;;20.63;10.95;;;-5.80;99.90;;;;;;5064120;28;20050;-67
2022/12/18 04:09:55;;;;;;;21.10;11.63;;;-5.80;99.90;;;;;;5016589;28;20562;-67
2022/12/18 04:12:23;;;;;;;22.38;11.45;;;-5.80;99.90;;;;;;5036553;28;20045;-66
2022/12/18 04:14:49;;;;;;;25.27;12.10;;;-5.90;99.90;;;;;;5056099;28;20054;-67
2022/12/18 04:17:14;;;;;;;23.25;11.90;;;-5.80;99.90;;;;;;5023401;28;20034;-67
2022/12/18 04:19:40;;;;;;;21.90;11.27;;;-5.90;99.90;;;;;;5035397;28;20084;-67
2022/12/18 04:22:06;;;;;;;25.67;12.75;;;-5.90;99.90;;;;;;5069841;28;20064;-67
2022/12/18 04:24:31;;;;;;;22.95;11.05;;;-5.90;99.90;;;;;;5035849;28;20056;-66
2022/12/18 04:26:57;;;;;;;24.27;12.18;;;-6.00;99.90;;;;;;5038137;28;20378;-67
2022/12/18 04:29:23;;;;;;;23.17;11.25;;;-6.00;99.90;;;;;;5037521;28;20073;-66
2022/12/18 04:31:48;;;;;;;20.65;10.95;;;-6.00;99.90;;;;;;5038714;28;20030;-67
2022/12/18 04:34:14;;;;;;;20.85;11.80;;;-6.00;99.90;;;;;;5037568;28;20072;-66
2022/12/18 04:36:40;;;;;;;22.88;11.30;;;-6.10;99.90;;;;;;5039059;28;20049;-67
2022/12/18 04:39:05;;;;;;;22.52;11.98;;;-6.00;99.90;;;;;;5039779;28;20033;-67
2022/12/18 04:41:31;;;;;;;23.00;11.15;;;-6.00;99.90;;;;;;5035322;28;20072;-67
2022/12/18 04:43:57;;;;;;;20.88;10.85;;;-6.30;99.90;;;;;;5043492;28;20049;-67
2022/12/18 04:46:22;;;;;;;21.92;10.98;;;-6.00;99.90;;;;;;5047992;28;20382;-67
2022/12/18 04:48:48;;;;;;;21.05;11.00;;;-6.00;99.90;;;;;;5036592;28;20110;-67
2022/12/18 04:51:14;;;;;;;19.02;10.73;;;-6.00;99.90;;;;;;5037591;28;20041;-67
2022/12/18 04:53:39;;;;;;;22.92;10.85;;;-6.00;99.90;;;;;;5050218;28;20044;-67
2022/12/18 04:56:15;;;;;;;21.27;11.43;;;-6.00;99.90;;;;;;5053329;28;20052;-67
2022/12/18 04:58:43;;;;;;;18.40;10.00;;;-6.00;99.90;;;;;;5055414;28;20578;-67
2022/12/18 05:01:10;;;;;;;17.52;10.18;;;-6.00;99.90;;;;;;5042618;28;20103;-67
2022/12/18 05:03:36;;;;;;;19.23;10.57;;;-6.00;99.90;;;;;;5036558;28;20046;-67
2022/12/18 05:06:03;;;;;;;19.10;9.18;;;-6.00;99.90;;;;;;5045154;28;20045;-67
2022/12/18 05:08:29;;;;;;;18.95;10.07;;;-6.10;99.90;;;;;;5042194;28;20056;-66
2022/12/18 05:11:15;;;;;;;21.15;11.23;;;-6.10;99.90;;;;;;5033717;28;20050;-67
2022/12/18 05:13:42;;;;;;;19.38;9.50;;;-6.10;99.90;;;;;;5033051;28;20080;-68
2022/12/18 05:16:08;;;;;;;18.95;9.85;;;-6.10;99.90;;;;;;5038074;28;20037;-67
2022/12/18 05:18:34;;;;;;;20.30;10.02;;;-6.10;99.90;;;;;;5042425;28;20051;-67
2022/12/18 05:21:00;;;;;;;22.40;10.77;;;-6.10;99.90;;;;;;5048837;28;20065;-67
2022/12/18 05:23:26;;;;;;;21.05;11.25;;;-6.10;99.90;;;;;;5054338;28;20045;-67
2022/12/18 05:25:53;;;;;;;19.50;9.98;;;-6.10;99.90;;;;;;5051970;28;20090;-67
2022/12/18 05:28:20;;;;;;;20.20;10.15;;;-6.10;99.90;;;;;;5043753;28;21043;-67
2022/12/18 05:30:50;;;;;;;16.42;9.00;;;-6.10;99.90;;;;;;5040689;28;20172;-67
2022/12/18 05:33:16;;;;;;;18.50;9.35;;;-6.10;99.90;;;;;;5071548;28;20496;-67
2022/12/18 05:35:42;;;;;;;19.05;10.27;;;-6.30;99.90;;;;;;5039791;28;20049;-68
2022/12/18 05:38:08;;;;;;;19.13;9.75;;;-6.10;99.90;;;;;;5038573;28;20578;-67
2022/12/18 05:40:33;;;;;;;19.08;9.68;;;-6.10;99.90;;;;;;5040560;28;20057;-67
2022/12/18 05:42:59;;;;;;;18.55;11.30;;;-6.10;99.90;;;;;;5052537;28;20041;-66
2022/12/18 05:45:25;;;;;;;19.38;10.73;;;-6.10;99.90;;;;;;5042934;28;20057;-67
2022/12/18 05:47:50;;;;;;;18.77;9.40;;;-6.10;99.90;;;;;;5054680;28;20034;-67
2022/12/18 05:50:16;;;;;;;17.52;10.43;;;-6.20;99.90;;;;;;5054820;28;20365;-67
2022/12/18 05:52:42;;;;;;;18.85;10.18;;;-6.20;99.90;;;;;;5057654;28;20057;-67
2022/12/18 05:55:07;;;;;;;19.35;9.98;;;-6.30;99.90;;;;;;5039283;28;20045;-67
2022/12/18 05:57:33;;;;;;;22.35;11.43;;;-6.50;99.90;;;;;;5049419;28;20049;-67
2022/12/18 05:59:59;;;;;;;16.05;10.13;;;-6.50;99.90;;;;;;5040583;28;20041;-67
2022/12/18 06:02:24;;;;;;;16.90;9.77;;;-6.50;99.90;;;;;;5040629;28;20576;-67
2022/12/18 06:04:50;;;;;;;20.55;10.68;;;-6.50;99.90;;;;;;5053848;28;20025;-67
2022/12/18 06:07:16;;;;;;;19.88;9.73;;;-6.50;99.90;;;;;;5052125;28;20096;-67
2022/12/18 06:09:41;;;;;;;18.10;9.50;;;-6.50;99.90;;;;;;5060332;28;20044;-67
2022/12/18 06:12:07;;;;;;;17.77;10.30;;;-6.50;99.90;;;;;;5048048;28;20045;-67
2022/12/18 06:14:33;;;;;;;19.60;10.60;;;-6.60;99.90;;;;;;5046269;28;20048;-67
2022/12/18 06:16:58;;;;;;;17.20;10.38;;;-6.60;99.90;;;;;;5040272;28;20092;-66
2022/12/18 06:19:24;;;;;;;17.20;9.65;;;-6.60;99.90;;;;;;5048631;28;20075;-67
2022/12/18 06:21:50;;;;;;;14.18;9.25;;;-6.50;99.90;;;;;;5041295;28;20045;-67
2022/12/18 06:24:16;;;;;;;14.82;9.13;;;-6.50;99.90;;;;;;5039308;28;20060;-67
2022/12/18 06:26:42;;;;;;;15.20;9.13;;;-6.40;99.90;;;;;;5060277;28;20041;-66
2022/12/18 06:29:07;;;;;;;17.40;9.88;;;-6.40;99.90;;;;;;5050612;28;20071;-67
2022/12/18 06:31:33;;;;;;;17.08;9.50;;;-6.40;99.90;;;;;;5054395;28;20056;-67
2022/12/18 06:34:01;;;;;;;16.77;9.38;;;-6.40;99.90;;;;;;5071248;28;20057;-66
2022/12/18 06:36:27;;;;;;;15.45;9.07;;;-6.40;99.90;;;;;;5036417;28;20041;-67
2022/12/18 06:38:52;;;;;;;14.75;9.02;;;-6.40;99.90;;;;;;5054512;28;20089;-67
2022/12/18 06:41:20;;;;;;;18.05;10.63;;;-6.40;99.90;;;;;;5042925;28;20089;-67
2022/12/18 06:43:45;;;;;;;18.80;9.70;;;-6.30;99.90;;;;;;5039771;28;20068;-68
2022/12/18 06:46:12;;;;;;;16.48;9.73;;;-6.40;99.90;;;;;;5038044;28;20049;-68
2022/12/18 06:48:38;;;;;;;16.23;9.95;;;-6.40;99.90;;;;;;5038613;28;20049;-67
2022/12/18 06:51:04;;;;;;;17.50;10.50;;;-6.40;99.90;;;;;;5039129;28;20033;-67
2022/12/18 06:53:32;;;;;;;16.05;9.13;;;-6.50;99.90;;;;;;5037571;28;20076;-67
2022/12/18 06:56:06;;;;;;;16.05;9.60;;;-6.60;99.90;;;;;;5043218;28;20500;-67
2022/12/18 06:58:32;;;;;;;17.60;10.27;;;-6.60;99.90;;;;;;5037966;28;20059;-67
2022/12/18 07:01:04;;;;;;;18.65;10.13;;;-6.60;99.90;;;;;;5045429;28;20041;-67
2022/12/18 07:03:30;;;;;;;16.17;10.07;;;-6.70;99.90;;;;;;5048795;28;20053;-67
2022/12/18 07:05:56;;;;;;;17.10;10.10;;;-6.70;99.90;;;;;;5062329;28;20063;-67
2022/12/18 07:08:22;;;;;;;16.35;9.82;;;-6.80;99.90;;;;;;5065817;28;20413;-67
2022/12/18 07:10:48;;;;;;;16.67;9.32;;;-6.90;99.90;;;;;;5052720;28;20436;-67
2022/12/18 07:13:15;;;;;;;18.90;10.63;;;-6.90;99.90;;;;;;5054101;28;20037;-67
2022/12/18 07:15:41;;;;;;;18.10;9.57;;;-6.90;99.90;;;;;;5055941;28;20051;-67
2022/12/18 07:18:07;;;;;;;19.52;10.23;;;-7.00;99.90;;;;;;5053171;28;20041;-67
2022/12/18 07:20:33;;;;;;;16.05;9.43;;;-7.00;99.90;;;;;;5048338;28;20103;-67
2022/12/18 07:22:58;;;;;;;14.95;8.85;;;-7.00;99.90;;;;;;5037104;28;20034;-67
2022/12/18 07:25:24;;;;;;;16.73;9.57;;;-7.00;99.90;;;;;;5033951;28;20454;-67
2022/12/18 07:27:50;;;;;;;17.45;9.57;;;-7.00;99.90;;;;;;5036435;28;20123;-67
2022/12/18 07:30:15;;;;;;;19.98;9.57;;;-6.90;99.90;;;;;;5038201;28;20041;-67
2022/12/18 07:32:41;;;;;;;14.23;8.52;;;-6.50;99.90;;;;;;5046096;28;20044;-69
2022/12/18 07:35:07;;;;;;;14.27;9.15;;;-7.00;99.90;;;;;;5053360;28;20041;-67
2022/12/18 07:37:32;;;;;;;16.23;8.68;;;-6.80;99.90;;;;;;5039395;28;20061;-66
2022/12/18 07:39:58;;;;;;;13.38;8.50;;;-7.00;99.90;;;;;;5037665;28;20085;-67
2022/12/18 07:42:30;;;;;;;15.65;8.65;;;-6.90;99.90;;;;;;5044246;28;20045;-67
2022/12/18 07:44:56;;;;;;;13.65;8.65;;;-6.90;99.90;;;;;;5036474;28;20045;-67
2022/12/18 07:47:22;;;;;;;13.13;7.60;;;-6.80;99.90;;;;;;5069014;28;20041;-66
2022/12/18 07:49:48;;;;;;;12.75;7.10;;;-6.70;99.90;;;;;;5049915;28;20123;-66
2022/12/18 07:52:13;;;;;;;11.20;7.22;;;-6.60;99.90;;;;;;5045403;28;20039;-67
2022/12/18 07:54:40;;;;;;;10.50;6.93;;;-6.50;99.90;;;;;;5044954;28;20427;-66
2022/12/18 07:57:06;;;;;;;13.95;7.63;;;-6.40;99.90;;;;;;5049662;28;20041;-67
2022/12/18 07:59:31;;;;;;;11.63;7.25;;;-6.30;99.90;;;;;;5040392;28;20107;-67
2022/12/18 08:01:58;;;;;;;12.60;7.68;;;-6.30;99.90;;;;;;5035850;28;20463;-67
2022/12/18 08:04:24;;;;;;;12.05;7.28;;;-6.20;99.90;;;;;;5045014;28;20105;-66
2022/12/18 08:06:50;;;;;;;13.15;7.13;;;-6.20;99.90;;;;;;5040202;28;20049;-66
2022/12/18 08:09:16;;;;;;;11.88;7.03;;;-6.10;99.90;;;;;;5037768;28;20076;-67
2022/12/18 08:11:42;;;;;;;12.15;7.07;;;-6.00;99.90;;;;;;5030435;28;20038;-66
2022/12/18 08:14:08;;;;;;;11.02;7.30;;;-6.00;99.90;;;;;;5027391;28;20048;-66
2022/12/18 08:16:34;;;;;;;11.35;6.70;;;-5.90;99.90;;;;;;5017802;28;20066;-66
2022/12/18 08:18:59;;;;;;;12.60;7.50;;;-5.80;99.90;;;;;;5016323;28;20038;-66
2022/12/18 08:21:28;;;;;;;10.30;6.50;;;-5.20;99.90;;;;;;5027693;28;20054;-66
2022/12/18 08:23:56;;;;;;;11.82;7.55;;;-5.60;99.90;;;;;;5048164;28;20037;-66
2022/12/18 08:26:23;;;;;;;11.38;7.38;;;-5.60;99.90;;;;;;5052627;28;20037;-66
2022/12/18 08:28:49;;;;;;;10.48;6.40;;;-6.70;99.90;;;;;;5035974;28;20101;-66
2022/12/18 08:31:15;;;;;;;12.65;6.88;;;-5.40;99.90;;;;;;5023743;28;20072;-66
2022/12/18 08:33:42;;;;;;;11.85;6.72;;;-5.40;99.90;;;;;;5051792;28;20105;-66
2022/12/18 08:36:09;;;;;;;12.75;7.32;;;-5.30;99.90;;;;;;5018389;28;20053;-66
2022/12/18 08:38:35;;;;;;;12.27;7.20;;;-5.30;99.90;;;;;;5018200;28;20042;-66
2022/12/18 08:41:04;;;;;;;11.50;6.40;;;-5.20;99.90;;;;;;5011350;28;20093;-66
2022/12/18 08:46:14;;;;;;;10.50;6.22;;;-5.10;99.90;;;;;;5014734;28;20042;-66
2022/12/18 08:48:40;;;;;;;11.40;6.03;;;-5.10;99.90;;;;;;5034379;28;20046;-67
2022/12/18 08:51:06;;;;;;;9.50;5.57;;;-5.10;99.90;;;;;;5028858;28;20054;-66
2022/12/18 08:53:32;;;;;;;11.70;6.18;;;-5.10;99.90;;;;;;5024372;28;20049;-67
2022/12/18 08:55:57;;;;;;;9.45;5.80;;;-5.10;99.90;;;;;;5028222;28;20101;-66
2022/12/18 08:58:23;;;;;;;8.02;5.53;;;-5.00;99.90;;;;;;5042689;28;20042;-66
2022/12/18 09:00:49;;;;;;;9.18;5.65;;;-5.00;99.90;;;;;;5021250;28;20056;-66
2022/12/18 09:03:17;;;;;;;8.68;5.65;;;-4.90;99.90;;;;;;5038191;28;20068;-66
2022/12/18 09:05:45;;;;;;;8.57;5.68;;;-4.80;99.90;;;;;;5039490;28;20052;-66
2022/12/18 09:08:11;;;;;;;10.60;5.57;;;-4.80;99.90;;;;;;5039085;28;20119;-66
2022/12/18 09:10:48;;;;;;;8.63;5.80;;;-4.70;99.90;;;;;;5037374;28;20045;-67
2022/12/18 09:13:14;;;;;;;8.23;5.00;;;-4.60;99.90;;;;;;5039269;28;20519;-66
2022/12/18 09:15:45;;;;;;;7.65;5.50;;;-4.50;99.90;;;;;;5038651;28;20561;-66
2022/12/18 09:18:12;;;;;;;8.07;5.43;;;-4.40;99.90;;;;;;5038728;28;20041;-67
2022/12/18 09:20:38;;;;;;;8.77;5.63;;;-4.30;99.90;;;;;;5040217;28;20042;-66
2022/12/18 09:23:05;;;;;;;11.52;5.85;;;-4.20;99.90;;;;;;5038648;28;20050;-67
2022/12/18 09:25:35;;;;;;;7.57;5.28;;;-4.10;99.90;;;;;;5047828;28;20101;-67
2022/12/18 09:28:03;;;;;;;9.18;6.22;;;-4.00;99.90;;;;;;5054423;28;20088;-66
2022/12/18 09:30:29;;;;;;;9.07;4.93;;;-4.00;99.90;;;;;;5058939;28;20083;-67
2022/12/18 09:32:55;;;;;;;9.35;5.18;;;-3.90;99.90;;;;;;5038963;28;20053;-67
2022/12/18 09:35:21;;;;;;;11.02;5.10;;;-3.90;99.90;;;;;;5040165;28;20049;-66
2022/12/18 09:37:47;;;;;;;11.43;5.50;;;-3.80;99.90;;;;;;5039179;28;20072;-66
2022/12/18 09:40:19;;;;;;;8.15;5.00;;;-3.80;99.90;;;;;;5047143;28;20609;-66
2022/12/18 09:42:53;;;;;;;8.18;5.63;;;-3.80;99.90;;;;;;5040630;28;20045;-66
2022/12/18 09:45:19;;;;;;;7.82;4.75;;;-3.70;99.90;;;;;;5038052;28;20409;-66
2022/12/18 09:47:48;;;;;;;5.93;4.57;;;-3.70;99.90;;;;;;5040311;28;20068;-66
2022/12/18 09:50:35;;;;;;;7.28;5.05;;;-3.60;99.90;;;;;;5038732;28;20045;-65
2022/12/18 09:53:04;;;;;;;;;;;-3.40;99.90;;;;;;5039350;28;20041;-66
2022/12/18 09:55:35;;;;;;;8.45;4.63;;;-3.40;99.90;;;;;;5039964;28;19925;-65
2022/12/18 09:58:16;;;;;;;8.98;5.00;;;-3.30;99.90;;;;;;5037464;28;20410;-66
2022/12/18 10:00:42;;;;;;;7.95;5.18;;;-3.20;99.90;;;;;;5040355;28;20049;-66
2022/12/18 10:03:11;;;;;;;7.28;4.70;;;-3.10;99.90;;;;;;5038490;28;20042;-65
2022/12/18 10:05:39;;;;;;;6.97;4.75;;;-3.20;99.90;;;;;;5037941;28;20033;-65
2022/12/18 10:08:16;;;;;;;7.55;4.90;;;-2.90;99.90;;;;;;5039141;28;20056;-66
2022/12/18 10:10:53;;;;;;;6.90;4.55;;;-2.70;99.90;;;;;;5052477;28;20073;-66
2022/12/18 10:13:33;;;;;;;7.43;4.90;;;-2.50;99.90;;;;;;5040092;28;20048;-66
2022/12/18 10:16:08;;;;;;;7.20;4.28;;;-2.10;99.90;;;;;;5058110;28;20077;-66
2022/12/18 10:19:11;;;;;;;7.45;4.93;;;-1.60;99.90;;;;;;5050553;28;20048;-66
2022/12/18 10:22:16;;;;;;;6.80;4.50;;;-0.80;99.90;;;;;;5046586;28;20041;-66
2022/12/18 10:25:00;;;;;;;9.35;5.05;;;0.20;99.90;;;;;;5023884;28;20059;-66
2022/12/18 10:27:27;;;;;;;6.13;4.07;;;0.70;99.90;;;;;;5039214;28;20053;-67
2022/12/18 10:29:53;;;;;;;6.88;4.35;;;0.60;99.90;;;;;;5039993;28;20053;-66
2022/12/18 10:32:22;;;;;;;6.30;4.03;;;0.10;99.90;;;;;;5037658;28;20094;-66
2022/12/18 10:34:50;;;;;;;6.00;4.43;;;-0.40;99.90;;;;;;5049120;28;20047;-66
2022/12/18 10:37:19;;;;;;;7.05;4.40;;;-0.80;99.90;;;;;;5057404;28;20397;-66
2022/12/18 10:39:46;;;;;;;5.82;4.22;;;-1.20;99.90;;;;;;5058812;28;20049;-66
2022/12/18 10:42:19;;;;;;;7.05;4.50;;;-1.40;99.90;;;;;;5039650;28;20068;-66
2022/12/18 10:44:46;;;;;;;6.28;4.32;;;-1.70;99.90;;;;;;5036844;28;20049;-66
2022/12/18 10:47:17;;;;;;;4.63;3.90;;;-1.10;99.90;;;;;;5039383;28;20045;-66
2022/12/18 10:49:49;;;;;;;6.38;4.07;;;-1.90;99.90;;;;;;5045621;28;20072;-66
2022/12/18 10:52:18;;;;;;;6.78;4.13;;;-1.90;99.90;;;;;;5050904;28;20044;-67
2022/12/18 10:54:58;;;;;;;7.65;4.47;;;-2.00;99.90;;;;;;5057858;28;20045;-66
2022/12/18 10:57:32;;;;;;;7.50;4.55;;;-2.00;99.90;;;;;;5038763;28;20083;-67
2022/12/18 11:00:01;;;;;;;7.45;4.22;;;-1.70;99.90;;;;;;5039420;28;20057;-66
2022/12/18 11:02:37;;;;;;;5.43;3.58;;;-2.10;99.90;;;;;;5035859;28;20115;-66
2022/12/18 11:05:22;;;;;;;7.18;4.22;;;-2.10;99.90;;;;;;5051222;28;20170;-66
2022/12/18 11:07:54;;;;;;;7.50;4.15;;;-2.10;99.90;;;;;;5058060;28;20060;-66
2022/12/18 11:10:33;;;;;;;6.30;4.13;;;-2.10;99.90;;;;;;5052269;28;20044;-66
2022/12/18 11:13:20;;;;;;;6.45;4.18;;;-2.20;99.90;;;;;;5038762;28;20489;-67
2022/12/18 11:15:46;;;;;;;7.47;3.83;;;-2.20;99.90;;;;;;5037336;28;20064;-67
2022/12/18 11:18:38;;;;;;;6.80;4.10;;;-2.20;99.90;;;;;;5038225;28;20053;-66
2022/12/18 11:21:09;;;;;;;7.45;3.53;;;-2.20;99.90;;;;;;5038631;28;20425;-66
2022/12/18 11:23:50;;;;;;;5.97;4.32;;;-2.20;99.90;;;;;;5054482;28;20468;-66
2022/12/18 11:26:16;;;;;;;6.60;3.85;;;-2.10;99.90;;;;;;5058929;28;20128;-66
2022/12/18 11:28:50;;;;;;;5.78;3.70;;;-2.10;99.90;;;;;;5056533;28;20040;-66
2022/12/18 11:31:36;;;;;;;6.32;4.70;;;-2.10;99.90;;;;;;5058120;28;20045;-66
2022/12/18 11:34:15;;;;;;;6.40;4.03;;;-2.10;99.90;;;;;;5058615;28;20049;-66
2022/12/18 11:36:45;;;;;;;6.63;4.20;;;-2.00;99.90;;;;;;5055667;28;20049;-66
2022/12/18 11:39:36;;;;;;;5.85;4.13;;;-1.90;99.90;;;;;;5058517;28;20049;-66
2022/12/18 11:42:12;;;;;;;7.22;3.80;;;-1.90;99.90;;;;;;5039954;28;20882;-66
2022/12/18 11:44:46;;;;;;;;;;;-1.90;99.90;;;;;;5036468;28;20123;-66
2022/12/18 11:47:29;;;;;;;6.13;4.05;;;-1.90;99.90;;;;;;5038390;28;19985;-66
2022/12/18 11:50:00;;;;;;;7.07;5.05;;;-1.80;99.90;;;;;;5036270;28;20057;-66
2022/12/18 11:52:44;;;;;;;7.05;4.82;;;-1.80;99.90;;;;;;5037669;28;20113;-66
2022/12/18 11:55:15;;;;;;;5.35;3.88;;;-1.80;99.90;;;;;;5037558;28;20049;-66
2022/12/18 11:57:52;;;;;;;6.20;4.05;;;-1.80;99.90;;;;;;5036046;28;20045;-66
2022/12/18 12:00:19;;;;;;;6.40;3.58;;;-1.70;99.90;;;;;;5038198;28;20053;-66
2022/12/18 12:03:07;;;;;;;5.70;4.45;;;-1.70;99.90;;;;;;5036169;28;20071;-66
2022/12/18 12:05:44;;;;;;;5.68;3.55;;;-1.70;99.90;;;;;;5037435;28;20051;-66
2022/12/18 12:08:29;;;;;;;6.10;3.90;;;-1.70;99.90;;;;;;5037868;28;20042;-68
2022/12/18 12:11:18;;;;;;;7.22;4.50;;;-1.60;99.90;;;;;;5033947;28;20125;-67
2022/12/18 12:13:53;;;;;;;5.60;3.50;;;-1.80;99.90;;;;;;5039668;28;20044;-67
2022/12/18 12:16:21;;;;;;;4.18;3.45;;;-1.70;99.90;;;;;;5056767;28;20037;-67
2022/12/18 12:18:56;;;;;;;11.60;8.52;;;-1.60;99.90;;;;;;5056042;28;20045;-67
2022/12/18 12:21:46;;;;;;;7.50;4.82;;;-1.60;99.90;;;;;;5057563;28;20040;-67
2022/12/18 12:24:37;;;;;;;7.82;5.20;;;-1.50;99.90;;;;;;5055635;28;20075;-68
2022/12/18 12:27:21;;;;;;;6.45;4.30;;;-1.00;99.90;;;;;;5056993;28;20049;-68
2022/12/18 12:30:06;;;;;;;6.78;4.32;;;-1.50;99.90;;;;;;5056738;28;20565;-68
2022/12/18 12:32:35;;;;;;;9.02;4.28;;;-1.50;99.90;;;;;;5055680;28;20108;-69
2022/12/18 12:35:25;;;;;;;7.63;4.20;;;-1.50;99.90;;;;;;5055368;28;20064;-68
2022/12/18 12:38:08;;;;;;;8.90;4.45;;;-1.40;99.90;;;;;;5056896;28;20045;-68
2022/12/18 12:40:39;;;;;;;6.07;4.50;;;-1.40;99.90;;;;;;5049834;28;20057;-68
2022/12/18 12:43:40;;;;;;;7.10;3.92;;;-1.40;99.90;;;;;;5037271;28;20046;-68
2022/12/18 12:46:10;;;;;;;6.28;3.70;;;-1.40;99.90;;;;;;5036538;28;20048;-68
2022/12/18 12:48:46;;;;;;;7.18;4.53;;;-1.40;99.90;;;;;;5036271;28;20077;-68
2022/12/18 12:51:22;;;;;;;7.70;4.25;;;-1.20;99.90;;;;;;5037551;28;20076;-68
2022/12/18 12:53:49;;;;;;;8.35;5.63;;;-1.40;99.90;;;;;;5035291;28;20124;-68
2022/12/18 12:56:20;;;;;;;7.18;4.03;;;-1.40;99.90;;;;;;5037658;28;20051;-68
2022/12/18 12:58:45;;;;;;;6.75;4.28;;;-1.30;99.90;;;;;;5035453;28;20041;-68